sensor_id;sensor_type;location;lat;lon;timestamp;P1;durP1;ratioP1;P2;durP2;ratioP2
24745;SDS011;12845;52.042;6.838;2023-08-08T00:01:05;8.18;;;3.90;;
24745;SDS011;12845;52.042;6.838;2023-08-08T00:03:30;6.95;;;4.00;;
24745;SDS011;12845;52.042;6.838;2023-08-08T00:05:56;7.10;;;3.67;;
24745;SDS011;12845;52.042;6.838;2023-08-08T00:08:22;7.55;;;3.28;;
24745;SDS011;12845;52.042;6.838;2023-08-08T00:10:48;5.28;;;3.38;;
24745;SDS011;12845;52.042;6.838;2023-08-08T00:13:13;6.53;;;3.72;;
24745;SDS011;12845;52.042;6.838;2023-08-08T00:15:38;6.03;;;3.70;;
24745;SDS011;12845;52.042;6.838;2023-08-08T00:18:04;4.93;;;3.47;;
24745;SDS011;12845;52.042;6.838;2023-08-08T00:20:30;6.28;;;3.25;;
24745;SDS011;12845;52.042;6.838;2023-08-08T00:22:55;4.57;;;2.92;;
24745;SDS011;12845;52.042;6.838;2023-08-08T00:25:20;3.60;;;2.10;;
24745;SDS011;12845;52.042;6.838;2023-08-08T00:27:46;5.93;;;2.40;;
24745;SDS011;12845;52.042;6.838;2023-08-08T00:30:11;4.75;;;2.30;;
24745;SDS011;12845;52.042;6.838;2023-08-08T00:32:38;4.90;;;2.88;;
24745;SDS011;12845;52.042;6.838;2023-08-08T00:35:04;5.15;;;2.55;;
24745;SDS011;12845;52.042;6.838;2023-08-08T00:37:29;3.90;;;2.30;;
24745;SDS011;12845;52.042;6.838;2023-08-08T00:39:55;4.63;;;3.10;;
24745;SDS011;12845;52.042;6.838;2023-08-08T00:42:20;4.70;;;2.20;;
24745;SDS011;12845;52.042;6.838;2023-08-08T00:44:45;4.82;;;2.83;;
24745;SDS011;12845;52.042;6.838;2023-08-08T00:47:11;6.30;;;3.20;;
24745;SDS011;12845;52.042;6.838;2023-08-08T00:49:37;8.93;;;3.08;;
24745;SDS011;12845;52.042;6.838;2023-08-08T00:52:03;5.95;;;3.53;;
24745;SDS011;12845;52.042;6.838;2023-08-08T00:54:28;4.57;;;3.50;;
24745;SDS011;12845;52.042;6.838;2023-08-08T00:56:55;6.05;;;3.55;;
24745;SDS011;12845;52.042;6.838;2023-08-08T00:59:20;5.85;;;3.67;;
24745;SDS011;12845;52.042;6.838;2023-08-08T01:01:46;7.53;;;3.60;;
24745;SDS011;12845;52.042;6.838;2023-08-08T01:04:12;7.60;;;3.85;;
24745;SDS011;12845;52.042;6.838;2023-08-08T01:06:39;6.78;;;4.50;;
24745;SDS011;12845;52.042;6.838;2023-08-08T01:12:10;8.45;;;5.43;;
24745;SDS011;12845;52.042;6.838;2023-08-08T01:14:37;9.70;;;6.07;;
24745;SDS011;12845;52.042;6.838;2023-08-08T01:17:05;10.77;;;7.20;;
24745;SDS011;12845;52.042;6.838;2023-08-08T01:19:31;10.70;;;7.35;;
24745;SDS011;12845;52.042;6.838;2023-08-08T01:22:02;12.40;;;7.25;;
24745;SDS011;12845;52.042;6.838;2023-08-08T01:24:29;11.15;;;8.02;;
24745;SDS011;12845;52.042;6.838;2023-08-08T01:26:58;12.82;;;7.97;;
24745;SDS011;12845;52.042;6.838;2023-08-08T01:29:25;13.52;;;9.10;;
24745;SDS011;12845;52.042;6.838;2023-08-08T01:31:50;12.40;;;8.82;;
24745;SDS011;12845;52.042;6.838;2023-08-08T01:34:16;12.57;;;8.68;;
24745;SDS011;12845;52.042;6.838;2023-08-08T01:37:04;16.60;;;9.20;;
24745;SDS011;12845;52.042;6.838;2023-08-08T01:39:31;16.65;;;9.90;;
24745;SDS011;12845;52.042;6.838;2023-08-08T01:41:58;12.73;;;9.43;;
24745;SDS011;12845;52.042;6.838;2023-08-08T01:44:25;12.50;;;8.70;;
24745;SDS011;12845;52.042;6.838;2023-08-08T01:46:54;12.60;;;9.55;;
24745;SDS011;12845;52.042;6.838;2023-08-08T01:49:20;14.15;;;10.10;;
24745;SDS011;12845;52.042;6.838;2023-08-08T01:51:45;14.35;;;10.70;;
24745;SDS011;12845;52.042;6.838;2023-08-08T01:54:11;15.05;;;9.50;;
24745;SDS011;12845;52.042;6.838;2023-08-08T01:56:37;16.05;;;8.50;;
24745;SDS011;12845;52.042;6.838;2023-08-08T01:59:02;15.70;;;9.65;;
24745;SDS011;12845;52.042;6.838;2023-08-08T02:01:27;13.15;;;9.57;;
24745;SDS011;12845;52.042;6.838;2023-08-08T02:03:53;15.27;;;8.45;;
24745;SDS011;12845;52.042;6.838;2023-08-08T02:06:18;12.55;;;8.80;;
24745;SDS011;12845;52.042;6.838;2023-08-08T02:08:44;16.25;;;9.93;;
24745;SDS011;12845;52.042;6.838;2023-08-08T02:11:10;15.57;;;9.20;;
24745;SDS011;12845;52.042;6.838;2023-08-08T02:13:35;16.55;;;9.40;;
24745;SDS011;12845;52.042;6.838;2023-08-08T02:16:01;13.43;;;9.45;;
24745;SDS011;12845;52.042;6.838;2023-08-08T02:18:26;13.77;;;9.98;;
24745;SDS011;12845;52.042;6.838;2023-08-08T02:20:52;14.88;;;9.85;;
24745;SDS011;12845;52.042;6.838;2023-08-08T02:23:17;14.65;;;8.48;;
24745;SDS011;12845;52.042;6.838;2023-08-08T02:25:43;18.13;;;8.88;;
24745;SDS011;12845;52.042;6.838;2023-08-08T02:28:08;12.98;;;8.27;;
24745;SDS011;12845;52.042;6.838;2023-08-08T02:30:34;12.70;;;8.88;;
24745;SDS011;12845;52.042;6.838;2023-08-08T02:33:00;18.48;;;9.93;;
24745;SDS011;12845;52.042;6.838;2023-08-08T02:35:25;14.07;;;8.95;;
24745;SDS011;12845;52.042;6.838;2023-08-08T02:37:50;12.38;;;9.48;;
24745;SDS011;12845;52.042;6.838;2023-08-08T02:40:16;14.05;;;8.32;;
24745;SDS011;12845;52.042;6.838;2023-08-08T02:42:42;16.90;;;10.23;;
24745;SDS011;12845;52.042;6.838;2023-08-08T02:45:07;13.38;;;9.35;;
24745;SDS011;12845;52.042;6.838;2023-08-08T02:47:33;16.35;;;9.60;;
24745;SDS011;12845;52.042;6.838;2023-08-08T02:49:58;17.27;;;8.82;;
24745;SDS011;12845;52.042;6.838;2023-08-08T02:52:24;14.30;;;9.35;;
24745;SDS011;12845;52.042;6.838;2023-08-08T02:54:49;13.80;;;8.35;;
24745;SDS011;12845;52.042;6.838;2023-08-08T02:57:15;13.88;;;9.13;;
24745;SDS011;12845;52.042;6.838;2023-08-08T02:59:40;15.85;;;9.75;;
24745;SDS011;12845;52.042;6.838;2023-08-08T03:02:06;16.20;;;9.55;;
24745;SDS011;12845;52.042;6.838;2023-08-08T03:04:31;14.60;;;8.80;;
24745;SDS011;12845;52.042;6.838;2023-08-08T03:06:57;12.18;;;8.35;;
24745;SDS011;12845;52.042;6.838;2023-08-08T03:09:22;14.40;;;8.10;;
24745;SDS011;12845;52.042;6.838;2023-08-08T03:11:47;12.80;;;8.88;;
24745;SDS011;12845;52.042;6.838;2023-08-08T03:14:13;14.82;;;8.57;;
24745;SDS011;12845;52.042;6.838;2023-08-08T03:16:38;14.70;;;9.35;;
24745;SDS011;12845;52.042;6.838;2023-08-08T03:19:04;17.20;;;10.30;;
24745;SDS011;12845;52.042;6.838;2023-08-08T03:21:29;13.73;;;8.63;;
24745;SDS011;12845;52.042;6.838;2023-08-08T03:23:54;18.25;;;9.65;;
24745;SDS011;12845;52.042;6.838;2023-08-08T03:26:20;14.80;;;7.78;;
24745;SDS011;12845;52.042;6.838;2023-08-08T03:28:45;12.00;;;7.72;;
24745;SDS011;12845;52.042;6.838;2023-08-08T03:31:15;12.52;;;8.43;;
24745;SDS011;12845;52.042;6.838;2023-08-08T03:33:41;16.20;;;9.40;;
24745;SDS011;12845;52.042;6.838;2023-08-08T03:36:07;16.48;;;9.48;;
24745;SDS011;12845;52.042;6.838;2023-08-08T03:38:32;15.82;;;9.05;;
24745;SDS011;12845;52.042;6.838;2023-08-08T03:40:58;14.38;;;8.55;;
24745;SDS011;12845;52.042;6.838;2023-08-08T03:43:23;16.13;;;9.77;;
24745;SDS011;12845;52.042;6.838;2023-08-08T03:45:49;15.88;;;8.65;;
24745;SDS011;12845;52.042;6.838;2023-08-08T03:48:14;14.82;;;8.38;;
24745;SDS011;12845;52.042;6.838;2023-08-08T03:50:39;16.35;;;8.50;;
24745;SDS011;12845;52.042;6.838;2023-08-08T03:53:05;13.80;;;8.88;;
24745;SDS011;12845;52.042;6.838;2023-08-08T03:55:31;11.38;;;7.40;;
24745;SDS011;12845;52.042;6.838;2023-08-08T03:57:57;15.27;;;8.50;;
24745;SDS011;12845;52.042;6.838;2023-08-08T04:00:22;16.02;;;9.38;;
24745;SDS011;12845;52.042;6.838;2023-08-08T04:02:47;13.60;;;7.78;;
24745;SDS011;12845;52.042;6.838;2023-08-08T04:05:13;13.88;;;8.85;;
24745;SDS011;12845;52.042;6.838;2023-08-08T04:07:38;13.30;;;6.60;;
24745;SDS011;12845;52.042;6.838;2023-08-08T04:10:04;13.13;;;7.38;;
24745;SDS011;12845;52.042;6.838;2023-08-08T04:12:29;13.38;;;8.55;;
24745;SDS011;12845;52.042;6.838;2023-08-08T04:14:55;13.23;;;7.25;;
24745;SDS011;12845;52.042;6.838;2023-08-08T04:17:20;14.10;;;7.53;;
24745;SDS011;12845;52.042;6.838;2023-08-08T04:19:46;10.88;;;7.28;;
24745;SDS011;12845;52.042;6.838;2023-08-08T04:22:11;12.95;;;7.22;;
24745;SDS011;12845;52.042;6.838;2023-08-08T04:24:36;13.20;;;6.55;;
24745;SDS011;12845;52.042;6.838;2023-08-08T04:27:03;13.00;;;7.13;;
24745;SDS011;12845;52.042;6.838;2023-08-08T04:29:29;14.38;;;7.47;;
24745;SDS011;12845;52.042;6.838;2023-08-08T04:31:54;12.52;;;7.43;;
24745;SDS011;12845;52.042;6.838;2023-08-08T04:34:19;14.60;;;7.28;;
24745;SDS011;12845;52.042;6.838;2023-08-08T04:36:45;13.65;;;7.90;;
24745;SDS011;12845;52.042;6.838;2023-08-08T04:39:10;13.60;;;8.75;;
24745;SDS011;12845;52.042;6.838;2023-08-08T04:41:35;13.05;;;7.90;;
24745;SDS011;12845;52.042;6.838;2023-08-08T04:44:01;13.85;;;8.52;;
24745;SDS011;12845;52.042;6.838;2023-08-08T04:46:26;14.02;;;8.88;;
24745;SDS011;12845;52.042;6.838;2023-08-08T04:48:51;15.70;;;9.52;;
24745;SDS011;12845;52.042;6.838;2023-08-08T04:51:17;12.90;;;8.18;;
24745;SDS011;12845;52.042;6.838;2023-08-08T04:53:42;16.42;;;9.38;;
24745;SDS011;12845;52.042;6.838;2023-08-08T04:56:08;14.48;;;8.95;;
24745;SDS011;12845;52.042;6.838;2023-08-08T04:58:33;13.70;;;8.13;;
24745;SDS011;12845;52.042;6.838;2023-08-08T05:00:58;15.70;;;8.50;;
24745;SDS011;12845;52.042;6.838;2023-08-08T05:03:24;19.60;;;8.95;;
24745;SDS011;12845;52.042;6.838;2023-08-08T05:05:49;18.52;;;9.40;;
24745;SDS011;12845;52.042;6.838;2023-08-08T05:08:15;15.20;;;8.63;;
24745;SDS011;12845;52.042;6.838;2023-08-08T05:10:40;28.63;;;11.35;;
24745;SDS011;12845;52.042;6.838;2023-08-08T05:13:05;15.65;;;10.32;;
24745;SDS011;12845;52.042;6.838;2023-08-08T05:15:31;19.05;;;10.95;;
24745;SDS011;12845;52.042;6.838;2023-08-08T05:17:56;18.48;;;9.73;;
24745;SDS011;12845;52.042;6.838;2023-08-08T05:20:22;19.70;;;10.48;;
24745;SDS011;12845;52.042;6.838;2023-08-08T05:22:48;17.00;;;11.95;;
24745;SDS011;12845;52.042;6.838;2023-08-08T05:25:13;17.13;;;9.88;;
24745;SDS011;12845;52.042;6.838;2023-08-08T05:27:39;18.42;;;10.35;;
24745;SDS011;12845;52.042;6.838;2023-08-08T05:30:05;17.95;;;10.85;;
24745;SDS011;12845;52.042;6.838;2023-08-08T05:32:31;19.80;;;10.88;;
24745;SDS011;12845;52.042;6.838;2023-08-08T05:34:56;19.40;;;11.38;;
24745;SDS011;12845;52.042;6.838;2023-08-08T05:37:23;21.13;;;10.85;;
24745;SDS011;12845;52.042;6.838;2023-08-08T05:39:49;18.70;;;9.60;;
24745;SDS011;12845;52.042;6.838;2023-08-08T05:42:14;19.42;;;11.82;;
24745;SDS011;12845;52.042;6.838;2023-08-08T05:44:40;19.65;;;9.98;;
24745;SDS011;12845;52.042;6.838;2023-08-08T05:49:34;18.45;;;12.15;;
24745;SDS011;12845;52.042;6.838;2023-08-08T05:52:01;17.45;;;11.65;;
24745;SDS011;12845;52.042;6.838;2023-08-08T05:54:26;17.88;;;11.57;;
24745;SDS011;12845;52.042;6.838;2023-08-08T05:56:53;18.20;;;11.55;;
24745;SDS011;12845;52.042;6.838;2023-08-08T05:59:18;19.30;;;10.20;;
24745;SDS011;12845;52.042;6.838;2023-08-08T06:01:44;18.70;;;10.38;;
24745;SDS011;12845;52.042;6.838;2023-08-08T06:04:09;20.98;;;11.88;;
24745;SDS011;12845;52.042;6.838;2023-08-08T06:06:35;19.23;;;12.10;;
24745;SDS011;12845;52.042;6.838;2023-08-08T06:09:00;21.52;;;11.52;;
24745;SDS011;12845;52.042;6.838;2023-08-08T06:11:25;23.02;;;11.95;;
24745;SDS011;12845;52.042;6.838;2023-08-08T06:13:51;22.73;;;11.25;;
24745;SDS011;12845;52.042;6.838;2023-08-08T06:16:16;23.20;;;11.88;;
24745;SDS011;12845;52.042;6.838;2023-08-08T06:18:43;20.77;;;11.98;;
24745;SDS011;12845;52.042;6.838;2023-08-08T06:21:08;17.67;;;10.73;;
24745;SDS011;12845;52.042;6.838;2023-08-08T06:23:34;16.65;;;10.73;;
24745;SDS011;12845;52.042;6.838;2023-08-08T06:25:59;22.02;;;11.20;;
24745;SDS011;12845;52.042;6.838;2023-08-08T06:28:25;21.05;;;11.23;;
24745;SDS011;12845;52.042;6.838;2023-08-08T06:30:50;23.90;;;10.57;;
24745;SDS011;12845;52.042;6.838;2023-08-08T06:33:15;19.48;;;10.88;;
24745;SDS011;12845;52.042;6.838;2023-08-08T06:35:41;21.35;;;10.40;;
24745;SDS011;12845;52.042;6.838;2023-08-08T06:38:07;19.35;;;12.45;;
24745;SDS011;12845;52.042;6.838;2023-08-08T06:40:33;23.73;;;12.30;;
24745;SDS011;12845;52.042;6.838;2023-08-08T06:42:59;19.25;;;12.23;;
24745;SDS011;12845;52.042;6.838;2023-08-08T06:45:24;21.10;;;11.10;;
24745;SDS011;12845;52.042;6.838;2023-08-08T06:47:49;24.58;;;11.38;;
24745;SDS011;12845;52.042;6.838;2023-08-08T06:50:15;20.35;;;11.50;;
24745;SDS011;12845;52.042;6.838;2023-08-08T06:52:41;21.98;;;11.25;;
24745;SDS011;12845;52.042;6.838;2023-08-08T06:55:06;20.85;;;11.23;;
24745;SDS011;12845;52.042;6.838;2023-08-08T06:57:33;20.63;;;10.88;;
24745;SDS011;12845;52.042;6.838;2023-08-08T06:59:59;21.75;;;11.65;;
24745;SDS011;12845;52.042;6.838;2023-08-08T07:02:24;17.67;;;10.90;;
24745;SDS011;12845;52.042;6.838;2023-08-08T07:04:50;23.35;;;11.40;;
24745;SDS011;12845;52.042;6.838;2023-08-08T07:07:15;24.52;;;11.90;;
24745;SDS011;12845;52.042;6.838;2023-08-08T07:09:40;20.42;;;11.57;;
24745;SDS011;12845;52.042;6.838;2023-08-08T07:12:06;21.38;;;13.77;;
24745;SDS011;12845;52.042;6.838;2023-08-08T07:14:32;23.55;;;13.88;;
24745;SDS011;12845;52.042;6.838;2023-08-08T07:16:57;20.98;;;11.57;;
24745;SDS011;12845;52.042;6.838;2023-08-08T07:19:23;22.80;;;11.70;;
24745;SDS011;12845;52.042;6.838;2023-08-08T07:21:49;19.08;;;11.57;;
24745;SDS011;12845;52.042;6.838;2023-08-08T07:24:14;22.08;;;11.30;;
24745;SDS011;12845;52.042;6.838;2023-08-08T07:26:39;19.95;;;12.60;;
24745;SDS011;12845;52.042;6.838;2023-08-08T07:29:05;17.83;;;10.63;;
24745;SDS011;12845;52.042;6.838;2023-08-08T07:31:31;17.45;;;10.80;;
24745;SDS011;12845;52.042;6.838;2023-08-08T07:33:56;16.98;;;9.20;;
24745;SDS011;12845;52.042;6.838;2023-08-08T07:36:22;18.73;;;8.90;;
24745;SDS011;12845;52.042;6.838;2023-08-08T07:38:47;17.52;;;10.25;;
24745;SDS011;12845;52.042;6.838;2023-08-08T07:41:13;16.02;;;8.88;;
24745;SDS011;12845;52.042;6.838;2023-08-08T07:43:38;13.77;;;8.77;;
24745;SDS011;12845;52.042;6.838;2023-08-08T07:46:03;15.65;;;8.80;;
24745;SDS011;12845;52.042;6.838;2023-08-08T07:48:29;19.73;;;8.48;;
24745;SDS011;12845;52.042;6.838;2023-08-08T07:50:55;14.48;;;7.38;;
24745;SDS011;12845;52.042;6.838;2023-08-08T07:53:20;12.20;;;6.93;;
24745;SDS011;12845;52.042;6.838;2023-08-08T07:55:45;10.55;;;5.38;;
24745;SDS011;12845;52.042;6.838;2023-08-08T07:58:11;9.32;;;4.55;;
24745;SDS011;12845;52.042;6.838;2023-08-08T08:00:36;9.90;;;4.20;;
24745;SDS011;12845;52.042;6.838;2023-08-08T08:03:03;10.55;;;3.90;;
24745;SDS011;12845;52.042;6.838;2023-08-08T08:05:29;12.00;;;4.53;;
24745;SDS011;12845;52.042;6.838;2023-08-08T08:07:54;6.82;;;3.45;;
24745;SDS011;12845;52.042;6.838;2023-08-08T08:10:20;8.02;;;3.92;;
24745;SDS011;12845;52.042;6.838;2023-08-08T08:12:45;7.32;;;3.30;;
24745;SDS011;12845;52.042;6.838;2023-08-08T08:15:11;6.28;;;3.28;;
24745;SDS011;12845;52.042;6.838;2023-08-08T08:17:36;5.85;;;2.72;;
24745;SDS011;12845;52.042;6.838;2023-08-08T08:20:02;10.45;;;2.95;;
24745;SDS011;12845;52.042;6.838;2023-08-08T08:22:33;5.65;;;2.15;;
24745;SDS011;12845;52.042;6.838;2023-08-08T08:24:59;5.80;;;2.22;;
24745;SDS011;12845;52.042;6.838;2023-08-08T08:27:25;6.68;;;2.42;;
24745;SDS011;12845;52.042;6.838;2023-08-08T08:29:50;9.00;;;1.98;;
24745;SDS011;12845;52.042;6.838;2023-08-08T08:32:15;5.05;;;1.77;;
24745;SDS011;12845;52.042;6.838;2023-08-08T08:34:41;4.13;;;1.85;;
24745;SDS011;12845;52.042;6.838;2023-08-08T08:37:06;6.38;;;1.90;;
24745;SDS011;12845;52.042;6.838;2023-08-08T08:39:32;3.72;;;1.45;;
24745;SDS011;12845;52.042;6.838;2023-08-08T08:42:00;5.32;;;1.70;;
24745;SDS011;12845;52.042;6.838;2023-08-08T08:44:29;3.40;;;1.65;;
24745;SDS011;12845;52.042;6.838;2023-08-08T08:46:58;5.72;;;1.70;;
24745;SDS011;12845;52.042;6.838;2023-08-08T08:49:26;5.20;;;1.67;;
24745;SDS011;12845;52.042;6.838;2023-08-08T08:51:55;4.82;;;1.40;;
24745;SDS011;12845;52.042;6.838;2023-08-08T08:54:21;5.57;;;1.50;;
24745;SDS011;12845;52.042;6.838;2023-08-08T08:56:47;5.75;;;1.83;;
24745;SDS011;12845;52.042;6.838;2023-08-08T08:59:13;4.75;;;2.38;;
24745;SDS011;12845;52.042;6.838;2023-08-08T09:01:38;3.38;;;1.27;;
24745;SDS011;12845;52.042;6.838;2023-08-08T09:04:04;8.20;;;1.55;;
24745;SDS011;12845;52.042;6.838;2023-08-08T09:06:32;1.83;;;1.05;;
24745;SDS011;12845;52.042;6.838;2023-08-08T09:08:58;5.03;;;1.00;;
24745;SDS011;12845;52.042;6.838;2023-08-08T09:11:24;4.30;;;1.20;;
24745;SDS011;12845;52.042;6.838;2023-08-08T09:13:50;2.50;;;1.05;;
24745;SDS011;12845;52.042;6.838;2023-08-08T09:16:16;3.22;;;1.20;;
24745;SDS011;12845;52.042;6.838;2023-08-08T09:18:41;3.40;;;1.20;;
24745;SDS011;12845;52.042;6.838;2023-08-08T09:21:07;3.45;;;0.90;;
24745;SDS011;12845;52.042;6.838;2023-08-08T09:23:33;2.25;;;0.80;;
24745;SDS011;12845;52.042;6.838;2023-08-08T09:25:58;4.93;;;1.15;;
24745;SDS011;12845;52.042;6.838;2023-08-08T09:28:24;6.03;;;1.27;;
24745;SDS011;12845;52.042;6.838;2023-08-08T09:30:50;2.25;;;0.93;;
24745;SDS011;12845;52.042;6.838;2023-08-08T09:33:17;4.20;;;0.80;;
24745;SDS011;12845;52.042;6.838;2023-08-08T09:35:43;4.82;;;1.05;;
24745;SDS011;12845;52.042;6.838;2023-08-08T09:38:09;3.60;;;0.90;;
24745;SDS011;12845;52.042;6.838;2023-08-08T09:40:34;2.53;;;0.85;;
24745;SDS011;12845;52.042;6.838;2023-08-08T09:43:00;4.78;;;1.27;;
24745;SDS011;12845;52.042;6.838;2023-08-08T09:45:25;4.22;;;1.45;;
24745;SDS011;12845;52.042;6.838;2023-08-08T09:47:51;3.40;;;0.75;;
24745;SDS011;12845;52.042;6.838;2023-08-08T09:50:17;3.33;;;0.90;;
24745;SDS011;12845;52.042;6.838;2023-08-08T09:52:43;1.27;;;0.50;;
24745;SDS011;12845;52.042;6.838;2023-08-08T09:55:10;3.70;;;0.65;;
24745;SDS011;12845;52.042;6.838;2023-08-08T09:57:37;1.95;;;0.73;;
24745;SDS011;12845;52.042;6.838;2023-08-08T10:00:03;4.45;;;0.70;;
24745;SDS011;12845;52.042;6.838;2023-08-08T10:02:30;1.60;;;0.60;;
24745;SDS011;12845;52.042;6.838;2023-08-08T10:05:00;1.75;;;0.60;;
24745;SDS011;12845;52.042;6.838;2023-08-08T10:07:27;2.28;;;0.70;;
24745;SDS011;12845;52.042;6.838;2023-08-08T10:09:52;1.33;;;0.40;;
24745;SDS011;12845;52.042;6.838;2023-08-08T10:12:17;1.95;;;0.50;;
24745;SDS011;12845;52.042;6.838;2023-08-08T10:14:44;3.83;;;1.15;;
24745;SDS011;12845;52.042;6.838;2023-08-08T10:17:14;3.17;;;0.70;;
24745;SDS011;12845;52.042;6.838;2023-08-08T10:19:40;0.65;;;0.50;;
24745;SDS011;12845;52.042;6.838;2023-08-08T10:22:22;3.50;;;1.17;;
24745;SDS011;12845;52.042;6.838;2023-08-08T10:24:51;1.15;;;0.60;;
24745;SDS011;12845;52.042;6.838;2023-08-08T10:27:27;2.17;;;0.77;;
24745;SDS011;12845;52.042;6.838;2023-08-08T10:30:00;5.95;;;0.63;;
24745;SDS011;12845;52.042;6.838;2023-08-08T10:32:45;2.47;;;0.73;;
24745;SDS011;12845;52.042;6.838;2023-08-08T10:35:13;1.52;;;0.50;;
24745;SDS011;12845;52.042;6.838;2023-08-08T10:37:40;2.22;;;0.60;;
24745;SDS011;12845;52.042;6.838;2023-08-08T10:40:17;2.42;;;0.68;;
24745;SDS011;12845;52.042;6.838;2023-08-08T10:42:43;1.00;;;0.57;;
24745;SDS011;12845;52.042;6.838;2023-08-08T10:45:11;3.58;;;1.00;;
24745;SDS011;12845;52.042;6.838;2023-08-08T10:47:40;1.40;;;0.50;;
24745;SDS011;12845;52.042;6.838;2023-08-08T10:50:07;1.33;;;0.47;;
24745;SDS011;12845;52.042;6.838;2023-08-08T10:55:18;0.95;;;0.40;;
24745;SDS011;12845;52.042;6.838;2023-08-08T11:00:34;2.80;;;0.50;;
24745;SDS011;12845;52.042;6.838;2023-08-08T11:03:01;0.43;;;0.30;;
24745;SDS011;12845;52.042;6.838;2023-08-08T11:05:29;2.05;;;0.55;;
24745;SDS011;12845;52.042;6.838;2023-08-08T11:07:56;1.67;;;0.47;;
24745;SDS011;12845;52.042;6.838;2023-08-08T11:10:21;0.65;;;0.30;;
24745;SDS011;12845;52.042;6.838;2023-08-08T11:12:59;2.25;;;0.60;;
24745;SDS011;12845;52.042;6.838;2023-08-08T11:15:26;1.67;;;0.57;;
24745;SDS011;12845;52.042;6.838;2023-08-08T11:17:53;2.53;;;0.47;;
24745;SDS011;12845;52.042;6.838;2023-08-08T11:20:20;2.13;;;0.60;;
24745;SDS011;12845;52.042;6.838;2023-08-08T11:22:50;1.30;;;0.60;;
24745;SDS011;12845;52.042;6.838;2023-08-08T11:25:17;2.67;;;0.55;;
24745;SDS011;12845;52.042;6.838;2023-08-08T11:27:48;2.10;;;0.60;;
24745;SDS011;12845;52.042;6.838;2023-08-08T11:30:15;1.60;;;0.70;;
24745;SDS011;12845;52.042;6.838;2023-08-08T11:32:40;1.75;;;0.50;;
24745;SDS011;12845;52.042;6.838;2023-08-08T11:35:06;1.70;;;0.57;;
24745;SDS011;12845;52.042;6.838;2023-08-08T11:37:32;2.65;;;0.85;;
24745;SDS011;12845;52.042;6.838;2023-08-08T11:39:58;1.73;;;0.52;;
24745;SDS011;12845;52.042;6.838;2023-08-08T11:42:23;5.45;;;1.38;;
24745;SDS011;12845;52.042;6.838;2023-08-08T11:44:49;2.25;;;0.68;;
24745;SDS011;12845;52.042;6.838;2023-08-08T11:47:15;2.85;;;0.60;;
24745;SDS011;12845;52.042;6.838;2023-08-08T11:49:41;2.55;;;0.60;;
24745;SDS011;12845;52.042;6.838;2023-08-08T11:52:09;1.30;;;0.50;;
24745;SDS011;12845;52.042;6.838;2023-08-08T11:54:38;1.65;;;0.63;;
24745;SDS011;12845;52.042;6.838;2023-08-08T11:57:04;1.95;;;0.60;;
24745;SDS011;12845;52.042;6.838;2023-08-08T11:59:32;2.55;;;0.60;;
24745;SDS011;12845;52.042;6.838;2023-08-08T12:02:05;1.58;;;0.63;;
24745;SDS011;12845;52.042;6.838;2023-08-08T12:04:30;3.70;;;0.60;;
24745;SDS011;12845;52.042;6.838;2023-08-08T12:07:02;2.50;;;0.80;;
24745;SDS011;12845;52.042;6.838;2023-08-08T12:09:36;1.00;;;0.55;;
24745;SDS011;12845;52.042;6.838;2023-08-08T12:12:02;1.88;;;0.60;;
24745;SDS011;12845;52.042;6.838;2023-08-08T12:14:29;4.13;;;0.68;;
24745;SDS011;12845;52.042;6.838;2023-08-08T12:16:55;1.73;;;0.52;;
24745;SDS011;12845;52.042;6.838;2023-08-08T12:19:23;1.95;;;0.73;;
24745;SDS011;12845;52.042;6.838;2023-08-08T12:21:50;1.30;;;0.52;;
24745;SDS011;12845;52.042;6.838;2023-08-08T12:24:19;1.40;;;0.60;;
24745;SDS011;12845;52.042;6.838;2023-08-08T12:26:45;1.75;;;0.57;;
24745;SDS011;12845;52.042;6.838;2023-08-08T12:29:10;1.70;;;0.85;;
24745;SDS011;12845;52.042;6.838;2023-08-08T12:31:37;3.35;;;0.63;;
24745;SDS011;12845;52.042;6.838;2023-08-08T12:34:02;1.67;;;0.90;;
24745;SDS011;12845;52.042;6.838;2023-08-08T12:36:28;1.77;;;0.50;;
24745;SDS011;12845;52.042;6.838;2023-08-08T12:38:53;1.60;;;0.60;;
24745;SDS011;12845;52.042;6.838;2023-08-08T12:41:19;2.38;;;0.80;;
24745;SDS011;12845;52.042;6.838;2023-08-08T12:43:44;1.58;;;0.50;;
24745;SDS011;12845;52.042;6.838;2023-08-08T12:46:10;2.67;;;0.80;;
24745;SDS011;12845;52.042;6.838;2023-08-08T12:48:35;1.30;;;0.55;;
24745;SDS011;12845;52.042;6.838;2023-08-08T12:51:00;1.45;;;0.60;;
24745;SDS011;12845;52.042;6.838;2023-08-08T12:53:26;1.58;;;0.75;;
24745;SDS011;12845;52.042;6.838;2023-08-08T12:55:51;1.65;;;0.70;;
24745;SDS011;12845;52.042;6.838;2023-08-08T12:58:17;2.38;;;0.80;;
24745;SDS011;12845;52.042;6.838;2023-08-08T13:00:43;2.97;;;0.70;;
24745;SDS011;12845;52.042;6.838;2023-08-08T13:03:08;3.10;;;0.70;;
24745;SDS011;12845;52.042;6.838;2023-08-08T13:05:35;2.05;;;0.65;;
24745;SDS011;12845;52.042;6.838;2023-08-08T13:08:00;0.55;;;0.47;;
24745;SDS011;12845;52.042;6.838;2023-08-08T13:10:25;0.95;;;0.50;;
24745;SDS011;12845;52.042;6.838;2023-08-08T13:12:51;1.80;;;0.68;;
24745;SDS011;12845;52.042;6.838;2023-08-08T13:15:16;1.10;;;0.60;;
24745;SDS011;12845;52.042;6.838;2023-08-08T13:17:42;2.17;;;0.60;;
24745;SDS011;12845;52.042;6.838;2023-08-08T13:20:08;1.50;;;0.60;;
24745;SDS011;12845;52.042;6.838;2023-08-08T13:22:34;2.42;;;0.70;;
24745;SDS011;12845;52.042;6.838;2023-08-08T13:24:59;1.00;;;0.65;;
24745;SDS011;12845;52.042;6.838;2023-08-08T13:27:25;1.65;;;0.82;;
24745;SDS011;12845;52.042;6.838;2023-08-08T13:29:50;2.00;;;0.70;;
24745;SDS011;12845;52.042;6.838;2023-08-08T13:32:16;2.65;;;0.80;;
24745;SDS011;12845;52.042;6.838;2023-08-08T13:34:41;2.50;;;0.90;;
24745;SDS011;12845;52.042;6.838;2023-08-08T13:37:06;3.60;;;1.05;;
24745;SDS011;12845;52.042;6.838;2023-08-08T13:39:32;1.67;;;0.82;;
24745;SDS011;12845;52.042;6.838;2023-08-08T13:41:57;1.33;;;0.80;;
24745;SDS011;12845;52.042;6.838;2023-08-08T13:44:22;1.95;;;1.00;;
24745;SDS011;12845;52.042;6.838;2023-08-08T13:46:48;2.20;;;0.80;;
24745;SDS011;12845;52.042;6.838;2023-08-08T13:49:14;1.95;;;0.85;;
24745;SDS011;12845;52.042;6.838;2023-08-08T13:51:39;2.38;;;0.82;;
24745;SDS011;12845;52.042;6.838;2023-08-08T13:54:04;1.92;;;0.93;;
24745;SDS011;12845;52.042;6.838;2023-08-08T13:56:30;2.40;;;1.27;;
24745;SDS011;12845;52.042;6.838;2023-08-08T13:58:55;1.55;;;0.75;;
24745;SDS011;12845;52.042;6.838;2023-08-08T14:01:23;2.25;;;0.70;;
24745;SDS011;12845;52.042;6.838;2023-08-08T14:03:48;2.10;;;1.13;;
24745;SDS011;12845;52.042;6.838;2023-08-08T14:06:13;1.52;;;0.75;;
24745;SDS011;12845;52.042;6.838;2023-08-08T14:08:39;1.38;;;0.93;;
24745;SDS011;12845;52.042;6.838;2023-08-08T14:11:05;2.45;;;0.77;;
24745;SDS011;12845;52.042;6.838;2023-08-08T14:13:30;1.58;;;1.00;;
24745;SDS011;12845;52.042;6.838;2023-08-08T14:15:56;1.92;;;0.93;;
24745;SDS011;12845;52.042;6.838;2023-08-08T14:18:21;3.20;;;0.82;;
24745;SDS011;12845;52.042;6.838;2023-08-08T14:20:46;2.85;;;0.90;;
24745;SDS011;12845;52.042;6.838;2023-08-08T14:23:12;1.67;;;0.80;;
24745;SDS011;12845;52.042;6.838;2023-08-08T14:25:37;1.42;;;0.80;;
24745;SDS011;12845;52.042;6.838;2023-08-08T14:28:02;1.48;;;0.68;;
24745;SDS011;12845;52.042;6.838;2023-08-08T14:30:29;2.53;;;0.80;;
24745;SDS011;12845;52.042;6.838;2023-08-08T14:32:55;2.35;;;0.93;;
24745;SDS011;12845;52.042;6.838;2023-08-08T14:35:21;2.75;;;0.80;;
24745;SDS011;12845;52.042;6.838;2023-08-08T14:37:46;2.30;;;1.02;;
24745;SDS011;12845;52.042;6.838;2023-08-08T14:40:11;2.78;;;0.90;;
24745;SDS011;12845;52.042;6.838;2023-08-08T14:42:37;4.85;;;1.05;;